createdAt,value
2024-04-01T00:01:41.855Z,55.79
2024-04-01T00:04:08.994Z,55.79
2024-04-01T00:06:36.150Z,55.74
2024-04-01T00:09:03.198Z,55.73
2024-04-01T00:11:30.254Z,55.63
2024-04-01T00:13:57.149Z,55.59
2024-04-01T00:16:24.144Z,55.55
2024-04-01T00:18:51.208Z,55.57
2024-04-01T00:21:17.985Z,55.60
2024-04-01T00:23:47.143Z,55.62
2024-04-01T00:26:14.183Z,55.50
2024-04-01T00:28:41.313Z,55.41
2024-04-01T00:31:08.150Z,55.42
2024-04-01T00:33:35.094Z,55.47
2024-04-01T00:36:02.061Z,55.43
2024-04-01T00:38:29.325Z,55.46
2024-04-01T00:40:56.448Z,55.53
2024-04-01T00:43:23.628Z,55.56
2024-04-01T00:45:50.534Z,55.56
2024-04-01T00:48:17.488Z,55.44
2024-04-01T00:50:46.882Z,55.32
2024-04-01T00:53:13.827Z,55.37
2024-04-01T00:55:42.306Z,55.46
2024-04-01T00:58:09.355Z,55.58
2024-04-01T01:00:36.394Z,55.55
2024-04-01T01:03:03.751Z,55.60
2024-04-01T01:05:31.420Z,55.62
2024-04-01T01:07:58.358Z,55.61
2024-04-01T01:10:25.237Z,55.66
2024-04-01T01:12:52.355Z,55.62
2024-04-01T01:15:19.293Z,55.60
2024-04-01T01:17:46.443Z,55.56
2024-04-01T01:20:13.502Z,55.59
2024-04-01T01:22:41.384Z,55.64
2024-04-01T01:25:09.351Z,55.77
2024-04-01T01:27:40.604Z,55.88
2024-04-01T01:30:16.116Z,56.02
2024-04-01T01:32:46.448Z,56.06
2024-04-01T01:35:14.818Z,56.07
2024-04-01T01:37:41.863Z,56.17
2024-04-01T01:40:12.012Z,56.36
2024-04-01T01:42:38.933Z,56.35
2024-04-01T01:45:06.915Z,56.33
2024-04-01T01:47:35.607Z,56.32
2024-04-01T01:50:04.187Z,56.24
2024-04-01T01:52:31.442Z,56.34
2024-04-01T01:54:58.369Z,56.36
2024-04-01T01:57:25.817Z,56.38
2024-04-01T01:59:52.667Z,56.29
2024-04-01T02:02:19.605Z,56.30
2024-04-01T02:04:46.652Z,56.30
2024-04-01T02:07:13.698Z,56.27
2024-04-01T02:09:40.845Z,56.28
2024-04-01T02:12:10.453Z,56.25
2024-04-01T02:14:40.410Z,56.30
2024-04-01T02:17:10.588Z,56.25
2024-04-01T02:19:37.637Z,56.25
2024-04-01T02:22:04.690Z,56.20
2024-04-01T02:24:31.737Z,56.14
2024-04-01T02:26:58.571Z,56.06
2024-04-01T02:29:25.565Z,56.07
2024-04-01T02:31:52.360Z,56.16
2024-04-01T02:34:19.222Z,56.13
2024-04-01T02:36:46.244Z,56.13
2024-04-01T02:39:17.498Z,56.10
2024-04-01T02:41:48.134Z,56.14
2024-04-01T02:44:15.176Z,56.16
2024-04-01T02:46:42.428Z,56.18
2024-04-01T02:49:12.462Z,56.14
2024-04-01T02:51:39.590Z,56.13
2024-04-01T02:54:06.736Z,56.10
2024-04-01T02:56:34.114Z,56.06
2024-04-01T02:59:04.860Z,56.10
2024-04-01T03:01:31.976Z,56.04
2024-04-01T03:04:01.994Z,56.02
2024-04-01T03:06:29.754Z,56.06
2024-04-01T03:08:57.324Z,56.15
2024-04-01T03:11:24.224Z,56.15
2024-04-01T03:13:51.307Z,56.14
2024-04-01T03:16:21.439Z,56.19
2024-04-01T03:18:48.374Z,56.05
2024-04-01T03:21:15.656Z,56.19
2024-04-01T03:23:43.897Z,56.22
2024-04-01T03:26:10.944Z,56.22
2024-04-01T03:28:38.122Z,56.23
2024-04-01T03:31:06.597Z,56.24
2024-04-01T03:33:34.852Z,56.20
2024-04-01T03:36:01.807Z,56.23
2024-04-01T03:38:28.848Z,56.32
2024-04-01T03:40:55.989Z,56.35
2024-04-01T03:43:23.249Z,56.40
2024-04-01T03:46:00.130Z,56.47
2024-04-01T03:48:27.167Z,56.68
2024-04-01T03:50:54.110Z,56.62
2024-04-01T03:53:21.213Z,56.63
2024-04-01T03:56:10.653Z,56.71
2024-04-01T03:58:37.678Z,56.82
2024-04-01T04:01:04.621Z,56.80
2024-04-01T04:03:31.532Z,56.82
2024-04-01T04:05:58.430Z,56.79
2024-04-01T04:08:25.558Z,56.79
2024-04-01T04:10:52.645Z,56.77
2024-04-01T04:13:19.657Z,56.75
2024-04-01T04:15:46.721Z,56.70
2024-04-01T04:18:13.655Z,56.80
2024-04-01T04:20:40.816Z,56.78
2024-04-01T04:23:07.755Z,56.91
2024-04-01T04:25:34.782Z,56.87
2024-04-01T04:28:01.846Z,56.89
2024-04-01T04:30:28.874Z,56.75
2024-04-01T04:32:55.973Z,56.71
2024-04-01T04:35:22.883Z,56.68
2024-04-01T04:37:49.810Z,56.68
2024-04-01T04:40:16.760Z,56.72
2024-04-01T04:42:45.055Z,56.66
2024-04-01T04:45:12.181Z,56.58
2024-04-01T04:47:39.025Z,56.56
2024-04-01T04:50:07.073Z,56.60
2024-04-01T04:52:34.343Z,56.53
2024-04-01T04:55:01.343Z,56.51
2024-04-01T04:57:28.745Z,56.45
2024-04-01T04:59:55.694Z,56.38
2024-04-01T05:02:22.634Z,56.46
2024-04-01T05:04:50.006Z,56.34
2024-04-01T05:07:17.560Z,56.23
2024-04-01T05:09:44.598Z,56.13
2024-04-01T05:12:11.861Z,55.99
2024-04-01T05:14:38.790Z,55.89
2024-04-01T05:17:05.757Z,55.86
2024-04-01T05:19:32.914Z,55.68
2024-04-01T05:22:00.073Z,55.48
2024-04-01T05:24:26.986Z,55.33
2024-04-01T05:26:54.025Z,55.10
2024-04-01T05:29:20.983Z,54.92
2024-04-01T05:31:48.020Z,54.75
2024-04-01T05:34:15.051Z,54.54
2024-04-01T05:36:41.912Z,54.35
2024-04-01T05:39:08.875Z,53.99
2024-04-01T05:41:35.804Z,53.76
2024-04-01T05:44:02.842Z,53.53
2024-04-01T05:46:30.403Z,53.38
2024-04-01T05:48:57.483Z,53.11
2024-04-01T05:51:25.321Z,52.94
2024-04-01T05:53:52.370Z,52.82
2024-04-01T05:56:19.327Z,52.91
2024-04-01T05:58:46.352Z,52.76
2024-04-01T06:01:13.415Z,52.39
2024-04-01T06:03:40.856Z,51.90
2024-04-01T06:06:07.910Z,51.73
2024-04-01T06:08:34.964Z,51.27
2024-04-01T06:11:02.530Z,50.26
2024-04-01T06:13:29.785Z,49.68
2024-04-01T06:15:57.041Z,48.99
2024-04-01T06:18:24.777Z,48.24
2024-04-01T06:20:51.827Z,47.60
2024-04-01T06:23:18.976Z,47.11
2024-04-01T06:25:47.455Z,46.28
2024-04-01T06:28:14.612Z,45.86
2024-04-01T06:30:41.863Z,45.14
2024-04-01T06:33:08.797Z,44.94
2024-04-01T06:35:37.988Z,44.30
2024-04-01T06:38:06.398Z,43.98
2024-04-01T06:40:37.113Z,43.66
2024-04-01T06:43:04.281Z,43.57
2024-04-01T06:45:31.205Z,43.38
2024-04-01T06:47:58.610Z,43.20
2024-04-01T06:50:25.918Z,43.21
2024-04-01T06:52:53.066Z,43.35
2024-04-01T06:55:19.885Z,43.62
2024-04-01T06:57:46.870Z,43.58
2024-04-01T07:00:15.804Z,43.30
2024-04-01T07:02:42.764Z,43.01
2024-04-01T07:05:09.763Z,42.80
2024-04-01T07:07:36.842Z,42.46
2024-04-01T07:10:04.443Z,42.04
2024-04-01T07:12:32.668Z,42.13
2024-04-01T07:14:59.679Z,41.89
2024-04-01T07:17:26.712Z,41.57
2024-04-01T07:19:53.747Z,41.48
2024-04-01T07:22:20.811Z,41.34
2024-04-01T07:24:48.166Z,41.36
2024-04-01T07:27:15.222Z,41.50
2024-04-01T07:29:42.248Z,41.68
2024-04-01T07:32:09.416Z,41.88
2024-04-01T07:34:36.353Z,42.40
2024-04-01T07:37:03.921Z,42.69
2024-04-01T07:39:31.048Z,42.92
2024-04-01T07:41:58.297Z,43.05
2024-04-01T07:44:25.445Z,43.41
2024-04-01T07:46:52.605Z,43.59
2024-04-01T07:49:19.771Z,43.64
2024-04-01T07:51:46.796Z,43.69
2024-04-01T07:54:13.839Z,43.83
2024-04-01T07:56:41.499Z,43.95
2024-04-01T07:59:08.937Z,44.00
2024-04-01T08:01:36.129Z,44.18
2024-04-01T08:04:03.161Z,44.70
2024-04-01T08:06:30.404Z,45.02
2024-04-01T08:08:57.455Z,45.33
2024-04-01T08:11:24.552Z,45.31
2024-04-01T08:13:51.752Z,45.22
2024-04-01T08:16:18.799Z,45.09
2024-04-01T08:18:45.846Z,45.11
2024-04-01T08:21:12.890Z,45.12
2024-04-01T08:23:39.940Z,45.19
2024-04-01T08:26:07.091Z,45.18
2024-04-01T08:28:34.350Z,45.21
2024-04-01T08:31:01.710Z,45.17
2024-04-01T08:33:30.184Z,45.08
2024-04-01T08:35:58.253Z,44.88
2024-04-01T08:38:25.710Z,44.81
2024-04-01T08:41:05.865Z,44.88
2024-04-01T08:43:40.447Z,45.10
2024-04-01T08:46:07.427Z,44.93
2024-04-01T08:48:34.574Z,44.82
2024-04-01T08:51:05.630Z,44.76
2024-04-01T08:53:44.131Z,44.85
2024-04-01T08:56:11.075Z,45.11
2024-04-01T08:58:39.071Z,45.32
2024-04-01T09:01:05.993Z,45.45
2024-04-01T09:03:33.052Z,45.53
2024-04-01T09:06:00.030Z,45.72
2024-04-01T09:08:28.049Z,45.86
2024-04-01T09:10:55.098Z,45.76
2024-04-01T09:13:22.146Z,45.67
2024-04-01T09:15:49.188Z,45.47
2024-04-01T09:18:16.574Z,45.61
2024-04-01T09:20:44.818Z,45.73
2024-04-01T09:23:11.976Z,45.76
2024-04-01T09:25:39.051Z,45.70
2024-04-01T09:28:06.778Z,45.33
2024-04-01T09:30:34.652Z,45.09
2024-04-01T09:33:01.700Z,45.13
2024-04-01T09:35:29.146Z,45.07
2024-04-01T09:37:56.196Z,45.05
2024-04-01T09:40:23.246Z,45.16
2024-04-01T09:42:50.397Z,45.32
2024-04-01T09:45:17.644Z,45.40
2024-04-01T09:47:44.795Z,45.39
2024-04-01T09:50:11.854Z,45.39
2024-04-01T09:52:38.872Z,45.38
2024-04-01T09:55:06.956Z,45.56
2024-04-01T09:57:52.849Z,45.64
2024-04-01T10:00:20.413Z,45.44
2024-04-01T10:03:07.849Z,45.24
2024-04-01T10:05:53.830Z,45.07
2024-04-01T10:08:58.370Z,45.01
2024-04-01T10:11:43.420Z,44.97
2024-04-01T10:14:25.623Z,45.00
2024-04-01T10:17:13.149Z,44.74
2024-04-01T10:20:07.967Z,44.75
2024-04-01T10:22:54.038Z,44.48
2024-04-01T10:25:42.383Z,44.31
2024-04-01T10:28:38.010Z,44.28
2024-04-01T10:31:28.913Z,44.38
2024-04-01T10:34:33.637Z,44.33
2024-04-01T10:37:06.315Z,44.24
2024-04-01T10:39:48.528Z,44.26
2024-04-01T10:42:27.554Z,44.28
2024-04-01T10:45:13.434Z,44.26
2024-04-01T10:48:07.515Z,44.07
2024-04-01T10:50:43.676Z,44.00
2024-04-01T10:53:48.510Z,43.79
2024-04-01T10:56:46.994Z,43.31
2024-04-01T10:59:32.180Z,43.22
2024-04-01T11:02:23.944Z,43.31
2024-04-01T11:05:05.195Z,43.40
2024-04-01T11:07:38.591Z,43.62
2024-04-01T11:10:43.907Z,43.63
2024-04-01T11:13:12.760Z,43.81
2024-04-01T11:15:40.468Z,43.97
2024-04-01T11:18:22.386Z,44.09
2024-04-01T11:21:08.760Z,44.16
2024-04-01T11:24:14.512Z,44.33
2024-04-01T11:26:49.868Z,44.48
2024-04-01T11:29:36.684Z,44.50
2024-04-01T11:32:07.914Z,44.36
2024-04-01T11:34:57.893Z,44.18
2024-04-01T11:37:40.341Z,44.03
2024-04-01T11:40:09.315Z,44.07
2024-04-01T11:42:41.073Z,44.06
2024-04-01T11:45:09.861Z,43.96
2024-04-01T11:47:41.003Z,43.99
2024-04-01T11:50:21.073Z,44.17
2024-04-01T11:53:01.900Z,44.36
2024-04-01T11:55:29.358Z,44.36
2024-04-01T11:58:16.633Z,44.45
2024-04-01T12:00:54.372Z,44.56
2024-04-01T12:03:22.380Z,44.41
2024-04-01T12:05:50.829Z,44.34
2024-04-01T12:08:31.267Z,44.40
2024-04-01T12:11:00.344Z,44.34
2024-04-01T12:13:28.158Z,44.43
2024-04-01T12:15:55.500Z,44.67
2024-04-01T12:18:22.646Z,44.68
2024-04-01T12:20:56.795Z,44.72
2024-04-01T12:23:26.574Z,44.74
2024-04-01T12:26:05.357Z,44.67
2024-04-01T12:28:32.566Z,44.59
2024-04-01T12:30:59.597Z,44.68
2024-04-01T12:33:30.120Z,44.56
2024-04-01T12:35:57.781Z,44.76
2024-04-01T12:38:24.937Z,44.86
2024-04-01T12:40:52.403Z,44.74
2024-04-01T12:43:25.069Z,44.77
2024-04-01T12:45:53.052Z,44.86
2024-04-01T12:48:20.696Z,44.90
2024-04-01T12:50:51.231Z,45.00
2024-04-01T12:53:40.244Z,44.97
2024-04-01T12:56:17.882Z,44.75
2024-04-01T12:59:04.363Z,44.64
2024-04-01T13:01:54.884Z,44.68
2024-04-01T13:04:45.715Z,44.64
2024-04-01T13:07:25.329Z,44.62
2024-04-01T13:10:05.909Z,44.69
2024-04-01T13:13:14.411Z,44.62
2024-04-01T13:15:49.967Z,44.92
2024-04-01T13:18:30.073Z,44.98
2024-04-01T13:21:07.082Z,45.08
2024-04-01T13:23:46.633Z,45.21
2024-04-01T13:26:22.002Z,45.27
2024-04-01T13:28:53.427Z,45.31
2024-04-01T13:31:29.308Z,45.35
2024-04-01T13:34:07.904Z,45.26
2024-04-01T13:36:49.279Z,45.23
2024-04-01T13:39:46.242Z,45.23
2024-04-01T13:42:34.880Z,45.32
2024-04-01T13:45:24.149Z,45.41
2024-04-01T13:48:09.736Z,45.37
2024-04-01T13:50:55.418Z,45.35
2024-04-01T13:53:34.984Z,45.57
2024-04-01T13:56:33.356Z,45.67
2024-04-01T13:59:14.018Z,45.75
2024-04-01T14:01:54.868Z,46.00
2024-04-01T14:04:40.246Z,46.09
2024-04-01T14:07:26.031Z,46.07
2024-04-01T14:10:09.462Z,46.38
2024-04-01T14:12:52.178Z,46.38
2024-04-01T14:15:42.794Z,46.35
2024-04-01T14:18:18.382Z,46.40
2024-04-01T14:20:46.920Z,46.40
2024-04-01T14:23:13.952Z,46.27
2024-04-01T14:25:50.366Z,46.44
2024-04-01T14:28:18.604Z,46.59
2024-04-01T14:30:46.233Z,46.66
2024-04-01T14:33:17.557Z,46.74
2024-04-01T14:35:45.323Z,46.84
2024-04-01T14:38:14.779Z,46.96
2024-04-01T14:40:42.327Z,47.04
2024-04-01T14:43:12.465Z,47.05
2024-04-01T14:45:39.595Z,47.19
2024-04-01T14:48:07.574Z,47.25
2024-04-01T14:50:35.637Z,47.36
2024-04-01T14:53:03.705Z,47.48
2024-04-01T14:55:34.030Z,47.59
2024-04-01T14:58:01.049Z,47.53
2024-04-01T15:00:28.152Z,47.67
2024-04-01T15:02:55.280Z,47.64
2024-04-01T15:05:25.505Z,47.77
2024-04-01T15:07:52.601Z,47.81
2024-04-01T15:10:19.997Z,47.98
2024-04-01T15:12:47.167Z,48.07
2024-04-01T15:15:16.085Z,48.01
2024-04-01T15:17:43.082Z,48.15
2024-04-01T15:20:10.746Z,48.26
2024-04-01T15:22:38.221Z,48.28
2024-04-01T15:25:06.179Z,48.23
2024-04-01T15:27:35.249Z,48.45
2024-04-01T15:30:02.213Z,48.61
2024-04-01T15:32:29.364Z,48.66
2024-04-01T15:34:56.615Z,48.76
2024-04-01T15:37:27.321Z,48.79
2024-04-01T15:39:55.430Z,48.90
2024-04-01T15:42:22.465Z,48.97
2024-04-01T15:44:49.526Z,49.10
2024-04-01T15:47:16.779Z,49.19
2024-04-01T15:49:45.343Z,49.35
2024-04-01T15:52:12.292Z,49.51
2024-04-01T15:54:39.360Z,49.55
2024-04-01T15:57:06.383Z,49.75
2024-04-01T15:59:33.541Z,49.83
2024-04-01T16:02:00.787Z,49.94
2024-04-01T16:04:27.969Z,50.05
2024-04-01T16:06:54.893Z,50.12
2024-04-01T16:09:21.946Z,50.10
2024-04-01T16:11:49.174Z,50.13
2024-04-01T16:14:22.467Z,50.28
2024-04-01T16:16:50.853Z,50.47
2024-04-01T16:19:19.328Z,50.59
2024-04-01T16:21:49.247Z,50.81
2024-04-01T16:24:17.929Z,50.83
2024-04-01T16:26:49.698Z,51.08
2024-04-01T16:29:20.191Z,51.15
2024-04-01T16:31:47.467Z,51.22
2024-04-01T16:34:14.631Z,51.47
2024-04-01T16:36:43.299Z,51.63
2024-04-01T16:39:10.356Z,51.80
2024-04-01T16:41:37.291Z,51.92
2024-04-01T16:44:04.464Z,52.01
2024-04-01T16:46:31.812Z,52.02
2024-04-01T16:48:58.840Z,52.17
2024-04-01T16:51:28.456Z,52.23
2024-04-01T16:53:55.513Z,52.34
2024-04-01T16:56:22.648Z,52.36
2024-04-01T16:58:49.694Z,52.48
2024-04-01T17:01:16.838Z,52.49
2024-04-01T17:03:44.097Z,52.54
2024-04-01T17:06:11.139Z,52.61
2024-04-01T17:08:38.187Z,52.59
2024-04-01T17:11:05.235Z,52.65
2024-04-01T17:13:33.512Z,52.67
2024-04-01T17:16:00.660Z,52.64
2024-04-01T17:18:27.735Z,52.63
2024-04-01T17:20:55.757Z,52.61
2024-04-01T17:23:22.964Z,52.60
2024-04-01T17:25:50.082Z,52.57
2024-04-01T17:28:18.652Z,52.91
2024-04-01T17:30:47.356Z,52.68
2024-04-01T17:33:15.207Z,52.72
2024-04-01T17:35:42.360Z,52.70
2024-04-01T17:38:09.527Z,52.65
2024-04-01T17:40:38.040Z,52.64
2024-04-01T17:43:05.036Z,52.67
2024-04-01T17:45:32.084Z,52.75
2024-04-01T17:47:59.434Z,52.67
2024-04-01T17:50:27.026Z,52.73
2024-04-01T17:52:55.442Z,52.71
2024-04-01T17:55:22.730Z,52.72
2024-04-01T17:57:50.080Z,52.78
2024-04-01T18:00:17.354Z,52.82
2024-04-01T18:02:45.505Z,52.82
2024-04-01T18:05:12.657Z,52.91
2024-04-01T18:07:40.024Z,52.85
2024-04-01T18:10:07.680Z,52.82
2024-04-01T18:12:34.825Z,52.88
2024-04-01T18:15:03.781Z,52.98
2024-04-01T18:17:31.305Z,52.98
2024-04-01T18:19:58.269Z,53.00
2024-04-01T18:22:26.694Z,53.05
2024-04-01T18:24:54.996Z,53.13
2024-04-01T18:27:22.236Z,53.17
2024-04-01T18:29:57.252Z,53.21
2024-04-01T18:32:24.759Z,53.10
2024-04-01T18:34:58.530Z,53.08
2024-04-01T18:37:25.769Z,53.10
2024-04-01T18:39:53.530Z,53.23
2024-04-01T18:42:20.583Z,53.26
2024-04-01T18:44:47.746Z,53.22
2024-04-01T18:47:15.407Z,53.26
2024-04-01T18:49:42.660Z,53.31
2024-04-01T18:52:29.988Z,53.35
2024-04-01T18:54:59.169Z,53.42
2024-04-01T18:57:38.344Z,53.49
2024-04-01T19:00:06.941Z,53.54
2024-04-01T19:02:34.228Z,53.68
2024-04-01T19:05:01.333Z,53.70
2024-04-01T19:07:28.527Z,53.79
2024-04-01T19:09:55.984Z,53.91
2024-04-01T19:12:23.236Z,53.98
2024-04-01T19:14:51.678Z,54.05
2024-04-01T19:17:18.561Z,54.02
2024-04-01T19:19:45.612Z,54.02
2024-04-01T19:22:13.368Z,54.03
2024-04-01T19:24:41.135Z,54.02
2024-04-01T19:27:08.391Z,54.11
2024-04-01T19:29:36.582Z,54.02
2024-04-01T19:32:03.915Z,53.95
2024-04-01T19:34:31.085Z,53.99
2024-04-01T19:36:58.209Z,53.99
2024-04-01T19:39:25.360Z,53.97
2024-04-01T19:41:53.140Z,53.97
2024-04-01T19:44:21.965Z,54.00
2024-04-01T19:46:49.071Z,53.95
2024-04-01T19:49:16.209Z,53.95
2024-04-01T19:51:43.384Z,53.98
2024-04-01T19:54:10.427Z,53.92
2024-04-01T19:56:38.378Z,53.89
2024-04-01T19:59:14.138Z,53.93
2024-04-01T20:01:42.523Z,53.94
2024-04-01T20:04:18.114Z,54.19
2024-04-01T20:06:45.825Z,54.33
2024-04-01T20:09:19.020Z,54.30
2024-04-01T20:11:46.277Z,54.25
2024-04-01T20:14:17.105Z,54.11
2024-04-01T20:16:44.142Z,54.06
2024-04-01T20:19:11.802Z,54.07
2024-04-01T20:21:38.951Z,54.03
2024-04-01T20:24:23.257Z,53.89
2024-04-01T20:26:51.288Z,54.00
2024-04-01T20:29:19.308Z,54.28
2024-04-01T20:31:46.491Z,54.29
2024-04-01T20:34:13.744Z,54.37
2024-04-01T20:36:41.405Z,54.33
2024-04-01T20:39:08.536Z,54.34
2024-04-01T20:41:35.404Z,54.48
2024-04-01T20:44:02.624Z,54.52
2024-04-01T20:46:31.539Z,54.61
2024-04-01T20:48:59.097Z,54.55
2024-04-01T20:51:26.451Z,54.55
2024-04-01T20:54:21.107Z,54.56
2024-04-01T20:56:40.815Z,54.46
2024-04-01T20:59:21.493Z,54.53
2024-04-01T21:01:48.941Z,54.60
2024-04-01T21:04:17.962Z,54.65
2024-04-01T21:06:49.073Z,54.64
2024-04-01T21:09:16.138Z,54.73
2024-04-01T21:11:43.596Z,54.75
2024-04-01T21:14:11.044Z,54.81
2024-04-01T21:16:38.105Z,54.87
2024-04-01T21:19:05.440Z,54.86
2024-04-01T21:21:32.491Z,54.86
2024-04-01T21:23:59.653Z,54.94
2024-04-01T21:26:26.788Z,54.98
2024-04-01T21:28:53.846Z,54.99
2024-04-01T21:31:21.416Z,55.01
2024-04-01T21:33:49.893Z,54.99
2024-04-01T21:36:16.922Z,55.02
2024-04-01T21:38:43.998Z,55.03
2024-04-01T21:41:10.922Z,55.12
2024-04-01T21:43:38.261Z,55.15
2024-04-01T21:46:05.214Z,55.16
2024-04-01T21:48:32.873Z,55.18
2024-04-01T21:51:00.031Z,55.11
2024-04-01T21:53:27.890Z,55.14
2024-04-01T21:55:54.853Z,55.19
2024-04-01T21:58:21.980Z,55.18
2024-04-01T22:00:48.847Z,55.16
2024-04-01T22:03:15.971Z,55.21
2024-04-01T22:05:43.018Z,55.09
2024-04-01T22:08:11.206Z,55.15
2024-04-01T22:10:41.127Z,55.19
2024-04-01T22:13:08.153Z,55.10
2024-04-01T22:15:35.205Z,55.02
2024-04-01T22:18:02.041Z,55.03
2024-04-01T22:20:29.702Z,55.07
2024-04-01T22:22:56.651Z,55.09
2024-04-01T22:25:25.644Z,55.10
2024-04-01T22:27:52.486Z,55.08
2024-04-01T22:30:20.746Z,55.10
2024-04-01T22:32:49.031Z,55.15
2024-04-01T22:35:15.879Z,55.11
2024-04-01T22:37:42.926Z,55.10
2024-04-01T22:40:10.593Z,55.13
2024-04-01T22:42:37.532Z,55.08
2024-04-01T22:45:06.124Z,55.13
2024-04-01T22:47:34.196Z,55.13
2024-04-01T22:50:01.201Z,55.11
2024-04-01T22:52:28.203Z,55.09
2024-04-01T22:54:55.221Z,55.15
2024-04-01T22:57:22.169Z,55.12
2024-04-01T22:59:49.122Z,55.01
2024-04-01T23:02:16.170Z,55.06
2024-04-01T23:04:43.511Z,55.08
2024-04-01T23:07:10.586Z,55.16
2024-04-01T23:09:37.850Z,55.11
2024-04-01T23:12:05.270Z,55.13
2024-04-01T23:14:36.425Z,55.12
2024-04-01T23:17:07.551Z,55.11
2024-04-01T23:19:34.598Z,55.11
2024-04-01T23:22:01.441Z,55.17
2024-04-01T23:24:28.695Z,55.14
2024-04-01T23:26:55.738Z,55.19
2024-04-01T23:29:22.801Z,55.22
2024-04-01T23:31:51.963Z,55.22
2024-04-01T23:34:18.929Z,55.30
2024-04-01T23:36:46.180Z,55.37
2024-04-01T23:39:13.435Z,55.37
2024-04-01T23:41:40.701Z,55.34
2024-04-01T23:44:07.651Z,55.37
2024-04-01T23:46:34.567Z,55.33
2024-04-01T23:49:01.560Z,55.35
2024-04-01T23:51:28.768Z,55.36
2024-04-01T23:53:56.022Z,55.37
2024-04-01T23:56:23.576Z,55.32
2024-04-01T23:58:51.875Z,55.34
